This is the latest recevied weather packets stored in our database for station/object IZ1UKX-13. If no packets are shown the sender has not sent any weather packets the latest 10 day(s).
| Time | Temp. | Humidity | Pressure | Rain* | Wind** | Luminosity | Snow |
|---|---|---|---|---|---|---|---|
| 1777539674 | 18.89° C | 62% | 1023.2 hPa | 0 mm | - | 0 W/m² | - |
| 1777539375 | 18.33° C | 64% | 1023.2 hPa | 0 mm | - | 0 W/m² | - |
| 1777539074 | 17.78° C | 66% | 1023.6 hPa | 0 mm | - | 0 W/m² | - |
| 1777538775 | 16.67° C | 68% | 1023.6 hPa | 0 mm | - | 0 W/m² | - |
| 1777538474 | 16.67° C | 67% | 1023.6 hPa | 0 mm | - | 0 W/m² | - |
| 1777538175 | 16.67° C | 68% | 1023.6 hPa | 0 mm | - | 0 W/m² | - |
| 1777537874 | 17.22° C | 66% | 1023.6 hPa | 0 mm | - | 0 W/m² | - |
| 1777537575 | 17.22° C | 67% | 1023.6 hPa | 0 mm | - | 0 W/m² | - |
| 1777537275 | 17.22° C | 67% | 1023.6 hPa | 0 mm | - | 0 W/m² | - |
| 1777536975 | 16.67° C | 68% | 1023.6 hPa | 0 mm | - | 0 W/m² | - |
| 1777536674 | 16.11° C | 70% | 1023.6 hPa | 0 mm | - | 0 W/m² | - |
| 1777536375 | 16.11° C | 70% | 1023.6 hPa | 0 mm | - | 0 W/m² | - |
| 1777536075 | 16.67° C | 70% | 1023.6 hPa | 0 mm | - | 0 W/m² | - |
| 1777535775 | 16.11° C | 72% | 1023.6 hPa | 0 mm | - | 0 W/m² | - |
| 1777535475 | 15.56° C | 73% | 1024 hPa | 0 mm | - | 0 W/m² | - |
| 1777535175 | 15.56° C | 74% | 1024 hPa | 0 mm | - | 0 W/m² | - |
| 1777534874 | 15.56° C | 74% | 1024 hPa | 0 mm | - | 0 W/m² | - |
| 1777534575 | 15.56° C | 75% | 1024 hPa | 0 mm | - | 0 W/m² | - |
| 1777534275 | 15° C | 76% | 1024 hPa | 0 mm | - | 0 W/m² | - |
| 1777533974 | 14.44° C | 77% | 1024 hPa | 0 mm | - | 0 W/m² | - |
| 1777533675 | 14.44° C | 77% | 1024 hPa | 0 mm | - | 0 W/m² | - |
| 1777533625 | 14.44° C | 76% | 1024 hPa | 0 mm | - | 0 W/m² | - |
| 1777533325 | 14.44° C | 79% | 1024 hPa | 0 mm | - | 0 W/m² | - |
| 1777533025 | 14.44° C | 79% | 1024 hPa | 0 mm | - | 0 W/m² | - |
| 1777532725 | 13.33° C | 82% | 1024.5 hPa | 0 mm | - | 0 W/m² | - |
* Rain latest hour (hover to see other rain measurements)
** Current wind speed in m/s (hover to see current wind gust speed)